Marstown, Pennsylvania
Current Conditions -  °F | °C
As of 11:28 AM on Sunday 25 Jan 2015 (Local Time) from KMUI Reporting Station
Unknown Precip Unknown Precip  
Wind Chill: 30°   Ceiling: 3000
Heat Index: 37°   Visibility: 10mi
Dew Point: 30°   Wind: 10mph
Humidity: 75%   Direction: 230°SW
Pressure: 29.81"   Gusts: NA
Location:  40.5592°N, 76.3347°W
Report Text: KMUI 251628Z AUTO 23009KT 10SM UP OVC030 03/M01 A2981 RMK AO2
Loading
Personal Weather Stations






























Interactive Weather Map New forecast layout! Learn more

10-Day Weather Forecast

Advertisements
Track Severe Weather on mobile